Time;durP1;ratioP1;P1;durP2;ratioP2;P2;SDS_P1;SDS_P2;PMS_P1;PMS_P2;Temp;Humidity;BMP_temperature;BMP_pressure;BME280_temperature;BME280_humidity;BME280_pressure;Samples;Min_cycle;Max_cycle;Signal;HPM_P1;HPM_P2
2023/01/31 00:00:54;;;;;;;270.05;122.80;;;2.00;99.90;;;;;;5113541;28;20657;-70
2023/01/31 00:03:20;;;;;;;196.50;91.30;;;2.10;99.90;;;;;;5114203;28;20024;-70
2023/01/31 00:05:46;;;;;;;173.73;80.43;;;2.10;99.90;;;;;;5114185;28;20033;-70
2023/01/31 00:08:13;;;;;;;169.90;77.82;;;2.10;99.90;;;;;;5114112;28;20533;-70
2023/01/31 00:10:39;;;;;;;192.73;91.03;;;2.00;99.90;;;;;;5114291;28;20027;-70
2023/01/31 00:13:05;;;;;;;147.68;67.60;;;2.00;99.90;;;;;;5113840;28;20106;-70
2023/01/31 00:15:31;;;;;;;139.10;62.63;;;2.00;99.90;;;;;;5114110;28;20522;-70
2023/01/31 00:17:57;;;;;;;153.20;70.45;;;2.10;99.90;;;;;;5113620;28;20480;-70
2023/01/31 00:20:23;;;;;;;168.90;76.65;;;2.10;99.90;;;;;;5113845;28;20019;-70
2023/01/31 00:22:49;;;;;;;154.85;70.75;;;2.20;99.90;;;;;;5113937;28;20085;-70
2023/01/31 00:25:15;;;;;;;149.82;68.30;;;2.10;99.90;;;;;;5113864;28;20084;-70
2023/01/31 00:27:40;;;;;;;151.80;70.60;;;2.20;99.90;;;;;;5114102;28;20030;-70
2023/01/31 00:30:07;;;;;;;143.65;66.10;;;2.20;99.90;;;;;;5113963;28;20039;-70
2023/01/31 00:32:33;;;;;;;167.50;73.78;;;2.10;99.90;;;;;;5114093;28;20480;-70
2023/01/31 00:34:59;;;;;;;268.20;120.95;;;2.20;99.90;;;;;;5114461;28;20112;-70
2023/01/31 00:37:25;;;;;;;260.00;115.40;;;2.10;99.90;;;;;;5116286;28;20104;-70
2023/01/31 00:39:51;;;;;;;473.63;175.80;;;2.10;99.90;;;;;;5117258;28;20040;-70
2023/01/31 00:42:17;;;;;;;189.77;83.00;;;2.20;99.90;;;;;;5117434;28;20111;-70
2023/01/31 00:44:43;;;;;;;168.50;72.93;;;2.10;99.90;;;;;;5116054;28;20380;-70
2023/01/31 00:47:09;;;;;;;152.30;68.68;;;2.20;99.90;;;;;;5117206;28;20061;-70
2023/01/31 00:49:35;;;;;;;159.80;69.45;;;2.20;99.90;;;;;;5117623;28;20369;-70
2023/01/31 00:52:01;;;;;;;157.05;72.93;;;2.20;99.90;;;;;;5117171;28;20038;-70
2023/01/31 00:54:27;;;;;;;161.07;74.65;;;2.20;99.90;;;;;;5115806;28;20027;-70
2023/01/31 00:56:53;;;;;;;162.15;71.65;;;2.10;99.90;;;;;;5115672;28;20064;-70
2023/01/31 00:59:19;;;;;;;279.25;105.05;;;2.10;99.90;;;;;;5115736;28;20032;-70
2023/01/31 01:01:45;;;;;;;394.67;140.52;;;2.10;99.90;;;;;;5115466;28;20099;-70
2023/01/31 01:04:11;;;;;;;434.95;144.70;;;2.00;99.90;;;;;;5117032;28;20027;-70
2023/01/31 01:06:40;;;;;;;316.38;113.18;;;2.00;99.90;;;;;;5115548;28;20397;-70
2023/01/31 01:09:06;;;;;;;289.98;111.50;;;2.20;99.90;;;;;;5116771;28;20028;-70
2023/01/31 01:11:33;;;;;;;269.42;103.82;;;2.10;99.90;;;;;;5117146;28;20038;-70
2023/01/31 01:14:00;;;;;;;333.40;125.97;;;2.10;99.90;;;;;;5116526;28;20035;-70
2023/01/31 01:16:38;;;;;;;294.13;111.70;;;2.10;99.90;;;;;;5116852;28;20039;-70
2023/01/31 01:19:06;;;;;;;335.10;123.63;;;2.10;99.90;;;;;;5115220;28;20038;-70
2023/01/31 01:21:38;;;;;;;344.73;129.35;;;2.20;99.90;;;;;;5116631;28;20020;-70
2023/01/31 01:24:05;;;;;;;247.75;98.93;;;2.20;99.90;;;;;;5116434;28;20030;-70
2023/01/31 01:26:32;;;;;;;259.23;101.75;;;2.20;99.90;;;;;;5115314;28;20027;-70
2023/01/31 01:29:01;;;;;;;277.35;106.15;;;2.20;99.90;;;;;;5116396;28;20391;-70
2023/01/31 01:31:29;;;;;;;281.08;107.43;;;2.30;99.90;;;;;;5115106;28;20027;-70
2023/01/31 01:34:07;;;;;;;243.13;95.10;;;2.30;99.90;;;;;;5114864;28;20039;-70
2023/01/31 01:36:35;;;;;;;235.00;94.63;;;2.20;99.90;;;;;;5116487;28;20023;-70
2023/01/31 01:39:03;;;;;;;264.98;98.45;;;2.00;99.90;;;;;;5116201;28;20468;-70
2023/01/31 01:41:32;;;;;;;242.88;92.78;;;1.90;99.90;;;;;;5116337;28;20032;-70
2023/01/31 01:43:59;;;;;;;279.15;101.75;;;1.90;99.90;;;;;;5116173;28;20125;-70
2023/01/31 01:46:37;;;;;;;275.52;102.38;;;1.80;99.90;;;;;;5115710;28;20028;-70
2023/01/31 01:49:11;;;;;;;289.65;106.15;;;1.90;99.90;;;;;;5114688;28;20031;-70
2023/01/31 01:51:38;;;;;;;282.48;103.80;;;1.80;99.90;;;;;;5116173;28;20034;-70
2023/01/31 01:54:08;;;;;;;251.15;96.68;;;1.60;99.90;;;;;;5115841;28;20024;-70
2023/01/31 01:56:40;;;;;;;269.23;99.30;;;1.60;99.90;;;;;;5115845;28;20032;-70
2023/01/31 01:59:14;;;;;;;259.58;99.70;;;1.70;99.90;;;;;;5114298;28;20121;-70
2023/01/31 02:01:40;;;;;;;261.13;106.47;;;1.70;99.90;;;;;;5114517;28;20040;-69
2023/01/31 02:04:15;;;;;;;255.15;100.43;;;1.70;99.90;;;;;;5114492;28;20035;-70
2023/01/31 02:06:42;;;;;;;271.75;101.63;;;1.70;99.90;;;;;;5115681;28;20032;-70
2023/01/31 02:09:17;;;;;;;259.25;99.30;;;1.80;99.90;;;;;;5115592;28;20089;-70
2023/01/31 02:11:44;;;;;;;272.38;102.50;;;1.80;99.90;;;;;;5114506;28;20031;-70
2023/01/31 02:14:10;;;;;;;290.95;105.63;;;1.80;99.90;;;;;;5115464;28;20051;-70
2023/01/31 02:16:37;;;;;;;291.48;110.57;;;1.80;99.90;;;;;;5115464;28;20524;-70
2023/01/31 02:19:11;;;;;;;295.45;107.15;;;1.70;99.90;;;;;;5113998;28;20034;-70
2023/01/31 02:21:46;;;;;;;277.65;104.63;;;1.70;99.90;;;;;;5114214;28;20031;-70
2023/01/31 02:24:39;;;;;;;283.95;105.57;;;1.70;99.90;;;;;;5114148;28;20042;-70
2023/01/31 02:27:23;;;;;;;286.42;106.43;;;1.60;99.90;;;;;;5113774;28;20028;-70
2023/01/31 02:30:08;;;;;;;291.73;105.75;;;1.60;99.90;;;;;;5113895;28;20512;-70
2023/01/31 02:32:50;;;;;;;320.58;115.68;;;1.50;99.90;;;;;;5115375;28;20032;-70
2023/01/31 02:35:30;;;;;;;304.95;110.47;;;1.50;99.90;;;;;;5113895;28;20065;-70
2023/01/31 02:38:10;;;;;;;288.65;101.15;;;1.60;99.90;;;;;;5113699;28;20069;-70
2023/01/31 02:40:46;;;;;;;299.85;107.45;;;1.60;99.90;;;;;;5113884;28;20533;-70
2023/01/31 02:46:51;;;;;;;286.60;103.07;;;1.60;99.90;;;;;;5090161;28;20039;-70
2023/01/31 02:49:35;;;;;;;278.33;100.20;;;1.50;99.90;;;;;;5115227;28;20076;-70
2023/01/31 02:52:20;;;;;;;326.88;116.18;;;1.40;99.90;;;;;;5113412;28;20031;-70
2023/01/31 02:58:08;;;;;;;321.50;113.15;;;1.40;99.90;;;;;;5112772;28;20028;-70
2023/01/31 03:00:37;;;;;;;302.40;112.07;;;1.40;99.90;;;;;;5114592;28;20550;-70
2023/01/31 03:03:07;;;;;;;309.02;113.93;;;1.40;99.90;;;;;;5114492;28;20044;-70
2023/01/31 03:05:33;;;;;;;308.13;111.32;;;1.50;99.90;;;;;;5114784;28;20023;-70
2023/01/31 03:08:03;;;;;;;335.98;113.72;;;1.50;99.90;;;;;;5114618;28;20085;-70
2023/01/31 03:10:29;;;;;;;;;;;1.50;99.90;;;;;;5113980;28;20028;-70
2023/01/31 03:13:19;;;;;;;316.25;118.00;;;1.50;99.90;;;;;;5113330;28;20280;-70
2023/01/31 03:19:12;;;;;;;317.15;114.13;;;1.70;99.90;;;;;;5114283;28;20032;-70
2023/01/31 03:21:46;;;;;;;301.20;107.88;;;1.70;99.90;;;;;;5113059;28;20037;-70
2023/01/31 03:24:14;;;;;;;320.88;109.00;;;1.60;99.90;;;;;;5114427;28;20404;-70
2023/01/31 03:26:40;;;;;;;285.75;100.90;;;1.40;99.90;;;;;;5113431;28;20020;-70
2023/01/31 03:29:09;;;;;;;287.10;102.40;;;1.50;99.90;;;;;;5112823;28;20055;-70
2023/01/31 03:31:39;;;;;;;288.35;100.07;;;1.40;99.90;;;;;;5113239;28;20139;-70
2023/01/31 03:34:10;;;;;;;276.83;101.50;;;1.40;99.90;;;;;;5113069;28;20142;-70
2023/01/31 03:36:49;;;;;;;300.33;102.10;;;1.40;99.90;;;;;;5114492;28;20067;-70
2023/01/31 03:39:52;;;;;;;290.45;103.55;;;1.40;99.90;;;;;;5113014;28;20035;-70
2023/01/31 03:42:27;;;;;;;313.00;110.72;;;1.40;99.90;;;;;;5113031;28;20085;-70
2023/01/31 03:45:00;;;;;;;316.40;112.38;;;1.50;99.90;;;;;;5112818;28;20023;-70
2023/01/31 03:47:29;;;;;;;295.42;104.57;;;1.50;99.90;;;;;;5113076;28;20496;-70
2023/01/31 03:50:00;;;;;;;309.58;107.72;;;1.60;99.90;;;;;;5112783;28;20088;-70
2023/01/31 03:52:30;;;;;;;;;;;1.50;99.90;;;;;;5113449;28;20493;-70
2023/01/31 03:55:06;;;;;;;291.77;101.15;;;1.50;99.90;;;;;;5112829;28;19912;-70
2023/01/31 03:57:39;;;;;;;288.20;102.65;;;1.50;99.90;;;;;;5112905;28;20036;-70
2023/01/31 04:00:12;;;;;;;312.90;107.22;;;1.60;99.90;;;;;;5112682;28;20031;-70
2023/01/31 04:02:49;;;;;;;281.48;101.45;;;1.50;99.90;;;;;;5112804;28;20047;-70
2023/01/31 04:05:23;;;;;;;273.17;100.93;;;1.60;99.90;;;;;;5114141;28;20069;-70
2023/01/31 04:07:53;;;;;;;292.95;104.07;;;1.60;99.90;;;;;;5112534;28;20096;-70
2023/01/31 04:10:24;;;;;;;261.08;94.72;;;1.50;99.90;;;;;;5114131;28;20122;-70
2023/01/31 04:12:50;;;;;;;278.90;99.93;;;1.60;99.90;;;;;;5118330;28;20024;-70
2023/01/31 04:15:16;;;;;;;270.90;95.85;;;1.50;99.90;;;;;;5117962;28;20044;-70
2023/01/31 04:17:42;;;;;;;240.50;87.53;;;1.50;99.90;;;;;;5117864;28;20038;-70
2023/01/31 04:20:08;;;;;;;241.48;84.53;;;1.60;99.90;;;;;;5117422;28;20035;-70
2023/01/31 04:22:35;;;;;;;247.20;88.65;;;1.70;99.90;;;;;;5117943;28;20031;-70
2023/01/31 04:25:00;;;;;;;262.90;94.72;;;1.80;99.90;;;;;;5117805;28;20016;-70
2023/01/31 04:27:27;;;;;;;231.65;82.68;;;1.80;99.90;;;;;;5117578;28;20032;-69
2023/01/31 04:29:53;;;;;;;237.27;86.30;;;1.80;99.90;;;;;;5117524;28;20115;-69
2023/01/31 04:32:18;;;;;;;244.93;84.40;;;1.70;99.90;;;;;;5117701;28;20120;-70
2023/01/31 04:34:44;;;;;;;249.13;93.60;;;1.70;99.90;;;;;;5117573;28;20057;-70
2023/01/31 04:37:10;;;;;;;298.95;105.75;;;1.90;99.90;;;;;;5117467;28;20046;-70
2023/01/31 04:39:36;;;;;;;261.15;95.93;;;1.80;99.90;;;;;;5117426;28;20031;-70
2023/01/31 04:42:02;;;;;;;258.83;93.00;;;1.80;99.90;;;;;;5117252;28;20384;-70
2023/01/31 04:44:28;;;;;;;260.65;96.32;;;1.70;99.90;;;;;;5117577;28;20024;-70
2023/01/31 04:46:54;;;;;;;252.70;92.00;;;1.90;99.90;;;;;;5117128;28;20076;-70
2023/01/31 04:49:20;;;;;;;245.85;92.03;;;1.70;99.90;;;;;;5117339;28;20088;-70
2023/01/31 04:51:46;;;;;;;244.05;91.35;;;1.60;99.90;;;;;;5117341;28;20425;-70
2023/01/31 04:54:12;;;;;;;242.57;91.00;;;1.70;99.90;;;;;;5116968;28;20142;-70
2023/01/31 04:56:38;;;;;;;246.43;87.20;;;1.80;99.90;;;;;;5117168;28;20034;-70
2023/01/31 04:59:04;;;;;;;241.23;89.75;;;1.70;99.90;;;;;;5117017;28;20027;-70
2023/01/31 05:01:30;;;;;;;265.55;99.03;;;1.70;99.90;;;;;;5116953;28;20071;-69
2023/01/31 05:03:56;;;;;;;275.30;99.43;;;1.80;99.90;;;;;;5117038;28;20019;-70
2023/01/31 05:06:22;;;;;;;268.35;103.32;;;1.70;99.90;;;;;;5116998;28;20034;-70
2023/01/31 05:08:48;;;;;;;286.35;104.35;;;1.70;99.90;;;;;;5117127;28;20027;-70
2023/01/31 05:11:14;;;;;;;270.73;103.38;;;1.80;99.90;;;;;;5116724;28;20397;-70
2023/01/31 05:13:41;;;;;;;274.60;101.97;;;1.90;99.90;;;;;;5117348;28;20516;-70
2023/01/31 05:16:09;;;;;;;305.83;109.15;;;1.90;99.90;;;;;;5116495;28;20027;-70
2023/01/31 05:18:36;;;;;;;318.92;117.90;;;1.80;99.90;;;;;;5116456;28;20042;-70
2023/01/31 05:21:03;;;;;;;314.40;114.47;;;1.70;99.90;;;;;;5116277;28;20030;-70
2023/01/31 05:23:30;;;;;;;334.33;115.35;;;1.70;99.90;;;;;;5115968;28;20081;-70
2023/01/31 05:25:57;;;;;;;326.90;117.10;;;1.50;99.90;;;;;;5116236;28;20477;-70
2023/01/31 05:28:24;;;;;;;354.90;121.40;;;1.60;99.90;;;;;;5116611;28;20028;-70
2023/01/31 05:30:51;;;;;;;355.58;122.63;;;1.50;99.90;;;;;;5116115;28;20024;-70
2023/01/31 05:33:19;;;;;;;307.58;115.00;;;1.50;99.90;;;;;;5116390;28;20481;-69
2023/01/31 05:35:48;;;;;;;335.63;116.00;;;1.50;99.90;;;;;;5116533;27;20099;-70
2023/01/31 05:38:14;;;;;;;319.73;114.57;;;1.60;99.90;;;;;;5116230;28;20024;-70
2023/01/31 05:40:41;;;;;;;368.73;122.43;;;1.60;99.90;;;;;;5116327;28;20023;-70
2023/01/31 05:43:07;;;;;;;361.48;114.65;;;1.60;99.90;;;;;;5115954;28;20031;-70
2023/01/31 05:45:33;;;;;;;366.08;113.18;;;1.50;99.90;;;;;;5116369;28;20032;-70
2023/01/31 05:47:59;;;;;;;373.63;113.60;;;1.60;99.90;;;;;;5115976;28;20023;-70
2023/01/31 05:50:25;;;;;;;376.85;118.78;;;1.60;99.90;;;;;;5116024;28;20101;-70
2023/01/31 05:52:54;;;;;;;368.75;125.22;;;1.70;99.90;;;;;;5115915;28;20031;-70
2023/01/31 05:55:20;;;;;;;374.08;118.82;;;1.70;99.90;;;;;;5116232;28;20027;-69
2023/01/31 05:57:47;;;;;;;347.48;111.50;;;1.50;99.90;;;;;;5114723;28;20077;-70
2023/01/31 06:00:14;;;;;;;330.25;106.28;;;1.40;99.90;;;;;;5115813;28;20064;-70
2023/01/31 06:02:41;;;;;;;373.67;114.22;;;1.40;99.90;;;;;;5115716;28;20040;-70
2023/01/31 06:05:08;;;;;;;351.00;109.75;;;1.50;99.90;;;;;;5115500;27;20058;-70
2023/01/31 06:07:34;;;;;;;356.60;110.28;;;1.60;99.90;;;;;;5115892;28;20078;-70
2023/01/31 06:10:00;;;;;;;383.02;125.00;;;1.60;99.90;;;;;;5115719;28;20033;-70
2023/01/31 06:12:27;;;;;;;344.65;113.85;;;1.70;99.90;;;;;;5115535;28;20036;-70
2023/01/31 06:14:53;;;;;;;278.75;93.18;;;1.60;99.90;;;;;;5115525;28;20035;-70
2023/01/31 06:17:19;;;;;;;283.95;95.25;;;1.70;99.90;;;;;;5115314;28;20024;-70
2023/01/31 06:19:45;;;;;;;388.42;93.43;;;1.70;99.90;;;;;;5115259;28;20377;-70
2023/01/31 06:22:11;;;;;;;298.67;92.75;;;1.60;99.90;;;;;;5115343;28;20073;-70
2023/01/31 06:24:37;;;;;;;350.55;88.97;;;1.50;99.90;;;;;;5115344;28;20035;-70
2023/01/31 06:27:03;;;;;;;289.15;92.57;;;1.50;99.90;;;;;;5114892;28;20034;-70
2023/01/31 06:29:29;;;;;;;413.38;90.05;;;1.40;99.90;;;;;;5111726;28;20031;-70
2023/01/31 06:31:55;;;;;;;344.80;93.30;;;1.40;99.90;;;;;;5114114;28;20092;-70
2023/01/31 06:34:21;;;;;;;474.27;100.80;;;1.30;99.90;;;;;;5098149;28;20024;-70
2023/01/31 06:36:47;;;;;;;332.83;92.93;;;1.30;99.90;;;;;;5095290;28;20059;-70
2023/01/31 06:39:13;;;;;;;355.45;95.82;;;1.30;99.90;;;;;;5114477;28;20069;-70
2023/01/31 06:41:39;;;;;;;314.35;98.90;;;1.40;99.90;;;;;;5110162;28;20075;-70
2023/01/31 06:44:05;;;;;;;363.60;100.43;;;1.50;99.90;;;;;;5114975;28;20019;-70
2023/01/31 06:46:31;;;;;;;359.98;100.13;;;1.60;99.90;;;;;;5103577;28;20024;-70
2023/01/31 06:48:57;;;;;;;379.80;107.40;;;1.60;99.90;;;;;;5098083;28;20036;-72
2023/01/31 06:51:23;;;;;;;409.73;109.30;;;1.60;99.90;;;;;;5099398;27;20035;-70
2023/01/31 06:53:51;;;;;;;377.60;104.82;;;1.70;99.90;;;;;;5107787;28;20105;-70
2023/01/31 06:56:18;;;;;;;381.52;101.53;;;1.50;99.90;;;;;;5107445;28;20023;-70
2023/01/31 06:58:44;;;;;;;391.02;106.60;;;1.50;99.90;;;;;;5110101;28;20019;-70
2023/01/31 07:01:14;;;;;;;340.20;104.68;;;1.50;99.90;;;;;;5113641;28;20473;-69
2023/01/31 07:03:41;;;;;;;355.48;100.25;;;1.60;99.90;;;;;;5103766;28;20118;-70
2023/01/31 07:06:09;;;;;;;378.85;106.82;;;1.60;99.90;;;;;;5093985;28;20028;-70
2023/01/31 07:08:35;;;;;;;437.00;113.15;;;1.70;99.90;;;;;;5094118;28;20401;-70
2023/01/31 07:11:02;;;;;;;386.65;104.20;;;1.80;99.90;;;;;;5096000;28;20413;-70
2023/01/31 07:13:29;;;;;;;387.58;109.68;;;1.60;99.90;;;;;;5107273;28;20046;-70
2023/01/31 07:15:56;;;;;;;375.65;106.28;;;1.70;99.90;;;;;;5113456;28;20453;-70
2023/01/31 07:18:22;;;;;;;403.02;110.80;;;1.70;99.90;;;;;;5111735;28;20087;-70
2023/01/31 07:20:49;;;;;;;496.70;121.05;;;1.80;99.90;;;;;;5113160;28;20030;-70
2023/01/31 07:23:15;;;;;;;411.05;107.07;;;1.70;99.90;;;;;;5114529;28;20070;-70
2023/01/31 07:25:41;;;;;;;360.05;107.20;;;1.60;99.90;;;;;;5113868;28;20031;-70
2023/01/31 07:28:07;;;;;;;408.88;113.35;;;1.70;99.90;;;;;;5106744;28;20027;-70
2023/01/31 07:30:33;;;;;;;372.40;105.72;;;1.70;99.90;;;;;;5107407;28;20508;-70
2023/01/31 07:32:59;;;;;;;412.35;121.53;;;1.60;99.90;;;;;;5100881;28;20051;-71
2023/01/31 07:35:26;;;;;;;412.90;124.88;;;1.80;99.90;;;;;;5099788;28;20028;-72
2023/01/31 07:37:53;;;;;;;406.75;119.15;;;2.00;99.90;;;;;;5110278;28;20038;-72
2023/01/31 07:40:19;;;;;;;405.55;114.40;;;2.00;99.90;;;;;;5113402;28;20023;-72
2023/01/31 07:42:45;;;;;;;401.90;115.60;;;2.20;99.90;;;;;;5103276;28;20016;-72
2023/01/31 07:45:13;;;;;;;465.65;125.13;;;2.00;99.90;;;;;;5114791;28;20031;-72
2023/01/31 07:47:40;;;;;;;551.72;147.80;;;2.10;99.90;;;;;;5118084;28;20019;-72
2023/01/31 07:50:06;;;;;;;437.38;123.05;;;2.00;99.90;;;;;;5117542;27;20027;-72
2023/01/31 07:52:32;;;;;;;462.27;118.70;;;1.90;99.90;;;;;;5118243;28;20032;-72
2023/01/31 07:54:58;;;;;;;405.80;111.35;;;2.00;99.90;;;;;;5118415;28;20034;-72
2023/01/31 07:57:24;;;;;;;420.30;119.53;;;2.20;99.90;;;;;;5116867;28;20027;-72
2023/01/31 07:59:50;;;;;;;428.90;118.97;;;2.20;99.90;;;;;;5116769;28;20099;-72
2023/01/31 08:05:02;;;;;;;614.83;136.40;;;2.40;99.90;;;;;;5118320;28;20473;-71
2023/01/31 08:07:29;;;;;;;490.08;131.82;;;2.20;99.90;;;;;;5118630;28;20027;-72
2023/01/31 08:09:55;;;;;;;425.65;121.20;;;2.10;99.90;;;;;;5114400;28;20106;-72
2023/01/31 08:12:21;;;;;;;435.48;120.93;;;2.10;99.90;;;;;;5117625;28;20107;-72
2023/01/31 08:14:47;;;;;;;426.73;122.07;;;2.10;99.90;;;;;;5117876;28;20389;-72
2023/01/31 08:17:13;;;;;;;436.52;120.85;;;2.10;99.90;;;;;;5117774;28;20032;-72
2023/01/31 08:19:39;;;;;;;429.58;120.07;;;2.20;99.90;;;;;;5108769;28;20024;-72
2023/01/31 08:22:05;;;;;;;431.33;117.53;;;2.40;99.90;;;;;;5116457;28;20484;-72
2023/01/31 08:24:37;;;;;;;415.63;123.85;;;2.50;99.90;;;;;;5117965;28;20104;-72
2023/01/31 08:27:03;;;;;;;413.55;119.85;;;2.50;99.90;;;;;;5118242;28;20031;-72
2023/01/31 08:29:29;;;;;;;434.20;119.75;;;2.70;99.90;;;;;;5117032;28;20166;-72
2023/01/31 08:32:00;;;;;;;409.33;116.60;;;2.60;99.90;;;;;;5108580;28;20051;-72
2023/01/31 08:34:28;;;;;;;416.08;117.97;;;2.50;99.90;;;;;;5117285;28;20129;-72
2023/01/31 08:36:54;;;;;;;422.42;120.93;;;2.80;99.90;;;;;;5117570;28;20525;-71
2023/01/31 08:39:20;;;;;;;403.42;122.10;;;3.00;99.90;;;;;;5116969;28;20024;-72
2023/01/31 08:41:46;;;;;;;390.88;115.50;;;3.00;99.90;;;;;;5117814;28;20020;-72
2023/01/31 08:44:12;;;;;;;407.63;116.82;;;3.10;99.90;;;;;;5118282;28;20130;-72
2023/01/31 08:46:39;;;;;;;397.10;115.53;;;3.30;99.90;;;;;;5116412;28;20476;-72
2023/01/31 08:49:06;;;;;;;396.33;115.80;;;3.40;99.90;;;;;;5116630;28;20038;-72
2023/01/31 08:51:32;;;;;;;409.00;122.43;;;3.50;99.90;;;;;;5117731;28;20027;-72
2023/01/31 08:53:58;;;;;;;410.50;126.30;;;3.40;99.90;;;;;;5117825;28;20114;-71
2023/01/31 08:56:25;;;;;;;404.30;119.15;;;3.50;99.90;;;;;;5116916;28;20032;-72
2023/01/31 08:58:51;;;;;;;397.63;114.13;;;3.40;99.90;;;;;;5117478;28;20043;-72
2023/01/31 09:01:19;;;;;;;374.63;110.07;;;3.30;99.90;;;;;;5115185;28;20048;-72
2023/01/31 09:03:47;;;;;;;373.73;119.80;;;3.30;99.90;;;;;;5115210;28;20711;-72
2023/01/31 09:06:21;;;;;;;395.50;121.40;;;3.20;99.90;;;;;;5110774;28;20063;-71
2023/01/31 09:08:47;;;;;;;366.92;115.97;;;3.10;99.90;;;;;;5111171;28;20028;-72
2023/01/31 09:11:17;;;;;;;329.08;113.55;;;3.20;99.90;;;;;;5116712;28;20031;-72
2023/01/31 09:13:45;;;;;;;320.20;109.70;;;3.40;99.90;;;;;;5116730;28;20035;-72
2023/01/31 09:16:13;;;;;;;332.52;110.60;;;3.50;99.90;;;;;;5117838;28;20164;-72
2023/01/31 09:18:39;;;;;;;339.33;108.60;;;3.60;99.90;;;;;;5117370;28;20067;-72
2023/01/31 09:21:24;;;;;;;346.60;111.72;;;3.70;99.90;;;;;;5116669;28;20055;-72
2023/01/31 09:24:01;;;;;;;362.13;113.72;;;3.80;99.90;;;;;;5116875;28;20055;-72
2023/01/31 09:26:27;;;;;;;343.05;114.10;;;3.80;99.90;;;;;;5116649;28;20027;-72
2023/01/31 09:28:53;;;;;;;340.58;111.13;;;3.90;99.90;;;;;;5113948;28;20153;-71
2023/01/31 09:31:20;;;;;;;350.60;110.32;;;4.00;99.90;;;;;;5116652;28;20028;-71
2023/01/31 09:33:46;;;;;;;335.73;112.88;;;3.80;99.90;;;;;;5116629;28;20031;-71
2023/01/31 09:36:18;;;;;;;366.05;115.88;;;4.00;99.90;;;;;;5116692;28;20110;-71
2023/01/31 09:38:44;;;;;;;357.20;113.05;;;4.20;99.90;;;;;;5115958;28;20039;-71
2023/01/31 09:41:25;;;;;;;346.77;115.70;;;4.30;99.90;;;;;;5115629;28;20559;-71
2023/01/31 09:43:57;;;;;;;353.15;119.00;;;4.30;99.90;;;;;;5114680;28;20034;-71
2023/01/31 09:46:27;;;;;;;363.98;119.30;;;4.20;99.90;;;;;;5109440;28;20058;-71
2023/01/31 09:48:55;;;;;;;370.30;121.25;;;4.30;99.90;;;;;;5112650;28;20093;-72
2023/01/31 09:51:22;;;;;;;340.52;106.65;;;4.40;99.90;;;;;;5117195;28;20029;-72
2023/01/31 09:53:48;;;;;;;297.20;95.10;;;4.40;99.90;;;;;;5116603;28;20027;-72
2023/01/31 09:57:13;;;;;;;285.42;93.38;;;4.40;99.90;;;;;;5116701;28;20396;-72
2023/01/31 09:59:48;;;;;;;279.65;93.50;;;4.40;99.90;;;;;;5031732;28;20061;-72
2023/01/31 10:02:47;;;;;;;260.17;89.78;;;4.40;99.90;;;;;;5032460;28;20107;-72
2023/01/31 10:05:22;;;;;;;239.65;82.90;;;4.30;99.90;;;;;;5032471;28;20582;-72
2023/01/31 10:07:53;;;;;;;227.85;78.85;;;4.40;99.90;;;;;;5032272;28;20433;-72
2023/01/31 10:10:37;;;;;;;173.05;64.57;;;4.50;99.90;;;;;;5032748;28;20069;-72
2023/01/31 10:13:11;;;;;;;175.63;65.30;;;4.60;99.90;;;;;;5032704;28;20044;-72
2023/01/31 10:15:43;;;;;;;127.15;50.67;;;4.70;99.90;;;;;;5032504;28;20121;-72
2023/01/31 10:18:28;;;;;;;103.40;43.80;;;4.70;99.90;;;;;;5015360;28;20049;-72
2023/01/31 10:21:00;;;;;;;92.10;39.40;;;4.90;99.90;;;;;;5031525;28;20033;-72
2023/01/31 10:23:39;;;;;;;86.97;39.30;;;5.00;99.90;;;;;;5032712;28;20507;-72
2023/01/31 10:26:16;;;;;;;74.75;35.22;;;5.00;99.90;;;;;;5033080;28;20078;-72
2023/01/31 10:29:00;;;;;;;78.45;34.20;;;5.00;99.90;;;;;;5031699;28;20148;-72
2023/01/31 10:31:43;;;;;;;81.13;35.47;;;5.10;99.90;;;;;;5095478;28;20044;-72
2023/01/31 10:34:29;;;;;;;75.32;35.50;;;5.30;99.90;;;;;;5095018;28;20397;-72
2023/01/31 10:37:18;;;;;;;79.45;35.28;;;5.30;99.90;;;;;;5108190;28;20019;-72
2023/01/31 10:39:57;;;;;;;67.28;32.15;;;5.40;99.90;;;;;;5109393;28;20028;-72
2023/01/31 10:42:36;;;;;;;62.45;30.35;;;5.40;99.90;;;;;;5115561;28;20042;-72
2023/01/31 10:45:08;;;;;;;61.67;29.98;;;5.40;99.90;;;;;;5108581;28;20053;-72
2023/01/31 10:47:36;;;;;;;59.40;28.17;;;5.50;99.90;;;;;;5097263;28;20046;-72
2023/01/31 10:50:21;;;;;;;61.33;30.17;;;5.40;99.90;;;;;;5108267;28;20023;-72
2023/01/31 10:53:07;;;;;;;55.97;27.95;;;5.30;99.90;;;;;;5116183;28;20024;-72
2023/01/31 10:56:02;;;;;;;59.97;26.33;;;5.50;99.90;;;;;;5115566;28;20032;-73
2023/01/31 10:58:28;;;;;;;60.42;26.80;;;5.60;99.90;;;;;;5113412;28;20038;-72
2023/01/31 11:00:54;;;;;;;54.08;26.55;;;5.60;99.90;;;;;;5114808;28;20386;-71
2023/01/31 11:03:20;;;;;;;51.47;26.15;;;5.60;99.90;;;;;;5114893;28;20453;-73
2023/01/31 11:05:52;;;;;;;67.80;29.90;;;5.60;99.90;;;;;;5115092;28;20111;-73
2023/01/31 11:08:25;;;;;;;51.75;25.75;;;5.50;99.90;;;;;;5114845;28;20461;-72
2023/01/31 11:10:54;;;;;;;52.67;26.25;;;5.50;99.90;;;;;;5114734;28;20322;-74
2023/01/31 11:13:22;;;;;;;51.35;25.20;;;5.40;99.90;;;;;;5114553;28;20027;-72
2023/01/31 11:15:51;;;;;;;46.92;24.77;;;5.50;99.90;;;;;;5115100;28;20377;-70
2023/01/31 11:18:42;;;;;;;49.60;24.83;;;5.60;99.90;;;;;;5114701;28;20055;-70
2023/01/31 11:21:17;;;;;;;51.70;25.25;;;5.60;99.90;;;;;;5112834;28;20119;-70
2023/01/31 11:23:44;;;;;;;54.42;26.40;;;5.60;99.90;;;;;;5115216;28;20481;-69
2023/01/31 11:26:29;;;;;;;62.00;29.20;;;5.50;99.90;;;;;;5108298;28;20019;-71
2023/01/31 11:28:58;;;;;;;60.47;28.67;;;5.40;99.90;;;;;;5109018;28;20388;-73
2023/01/31 11:31:32;;;;;;;73.63;34.58;;;5.40;99.90;;;;;;5114422;28;20035;-71
2023/01/31 11:34:04;;;;;;;78.47;35.42;;;5.40;99.90;;;;;;5114533;28;20031;-70
2023/01/31 11:36:41;;;;;;;76.18;35.65;;;5.50;99.90;;;;;;5113961;28;20489;-70
2023/01/31 11:39:30;;;;;;;67.35;33.47;;;5.40;99.90;;;;;;5109760;28;20019;-70
2023/01/31 11:41:57;;;;;;;80.50;35.90;;;5.40;99.90;;;;;;5113241;28;20070;-73
2023/01/31 11:44:23;;;;;;;76.47;37.95;;;5.50;99.90;;;;;;5114067;28;20301;-73
2023/01/31 11:46:55;;;;;;;89.20;41.22;;;5.50;99.90;;;;;;5113203;28;20027;-73
2023/01/31 11:49:41;;;;;;;74.60;36.33;;;5.40;99.90;;;;;;5106196;28;20494;-72
2023/01/31 11:52:27;;;;;;;76.28;34.88;;;5.40;99.90;;;;;;5114701;28;20024;-71
2023/01/31 11:55:06;;;;;;;78.80;37.85;;;5.40;99.90;;;;;;5114211;28;20035;-72
2023/01/31 11:57:36;;;;;;;97.22;42.53;;;5.50;99.90;;;;;;5114266;28;20552;-72
2023/01/31 12:00:16;;;;;;;97.07;44.22;;;5.30;99.90;;;;;;5114611;28;20024;-70
2023/01/31 12:02:43;;;;;;;94.72;42.83;;;5.30;99.90;;;;;;5112919;28;20039;-70
2023/01/31 12:05:12;;;;;;;88.35;40.65;;;5.30;99.90;;;;;;5112300;28;20034;-70
2023/01/31 12:07:49;;;;;;;74.15;34.60;;;5.30;99.90;;;;;;5114025;28;20027;-72
2023/01/31 12:10:32;;;;;;;72.90;37.80;;;5.20;99.90;;;;;;5114122;28;20124;-73
2023/01/31 12:13:01;;;;;;;66.05;33.85;;;5.20;99.90;;;;;;5114495;28;20058;-73
2023/01/31 12:15:28;;;;;;;58.30;30.17;;;5.20;99.90;;;;;;5114282;28;20020;-73
2023/01/31 12:17:55;;;;;;;65.85;30.90;;;5.10;99.90;;;;;;5114079;28;20024;-72
2023/01/31 12:20:47;;;;;;;81.32;37.53;;;5.00;99.90;;;;;;5114138;28;20024;-73
2023/01/31 12:23:40;;;;;;;52.00;25.52;;;5.10;99.90;;;;;;5113505;28;20161;-76
2023/01/31 12:26:32;;;;;;;69.15;34.38;;;4.90;99.90;;;;;;5101355;28;20473;-73
2023/01/31 12:29:15;;;;;;;58.47;32.13;;;4.90;99.90;;;;;;5113912;28;20051;-75
2023/01/31 12:32:05;;;;;;;48.47;25.40;;;5.00;99.90;;;;;;5115725;28;20024;-74
2023/01/31 12:34:46;;;;;;;62.15;27.35;;;5.10;99.90;;;;;;5115900;28;20408;-73
2023/01/31 12:37:27;;;;;;;;;;;5.00;99.90;;;;;;5112946;28;20035;-73
2023/01/31 12:40:17;;;;;;;50.08;23.80;;;5.00;99.90;;;;;;5117373;28;20484;-74
2023/01/31 12:42:49;;;;;;;58.60;24.60;;;4.90;99.90;;;;;;5117701;28;20501;-74
2023/01/31 12:45:49;;;;;;;64.05;25.13;;;4.90;99.90;;;;;;5108530;28;20026;-74
2023/01/31 12:48:30;;;;;;;61.92;24.30;;;5.00;99.90;;;;;;5102973;28;20372;-74
2023/01/31 12:51:19;;;;;;;57.25;24.55;;;5.20;99.90;;;;;;5116921;28;20061;-74
2023/01/31 12:54:02;;;;;;;51.03;23.52;;;5.30;99.90;;;;;;5110676;28;20397;-74
2023/01/31 12:56:42;;;;;;;47.55;22.33;;;5.30;99.90;;;;;;5117042;28;20786;-74